sensor_id;sensor_type;location;lat;lon;timestamp;P1;durP1;ratioP1;P2;durP2;ratioP2
13897;SDS011;7019;50.766;4.474;2023-06-26T00:00:49;4.60;;;4.20;;
13897;SDS011;7019;50.766;4.474;2023-06-26T00:03:16;4.03;;;3.63;;
13897;SDS011;7019;50.766;4.474;2023-06-26T00:05:43;6.40;;;3.90;;
13897;SDS011;7019;50.766;4.474;2023-06-26T00:08:10;6.60;;;4.40;;
13897;SDS011;7019;50.766;4.474;2023-06-26T00:10:37;4.43;;;3.63;;
13897;SDS011;7019;50.766;4.474;2023-06-26T00:13:05;4.43;;;3.20;;
13897;SDS011;7019;50.766;4.474;2023-06-26T00:15:32;3.63;;;3.00;;
13897;SDS011;7019;50.766;4.474;2023-06-26T00:18:00;4.40;;;3.10;;
13897;SDS011;7019;50.766;4.474;2023-06-26T00:20:28;3.57;;;2.67;;
13897;SDS011;7019;50.766;4.474;2023-06-26T00:22:59;3.20;;;2.90;;
13897;SDS011;7019;50.766;4.474;2023-06-26T00:25:26;5.27;;;2.70;;
13897;SDS011;7019;50.766;4.474;2023-06-26T00:27:53;4.27;;;2.50;;
13897;SDS011;7019;50.766;4.474;2023-06-26T00:30:21;4.03;;;2.97;;
13897;SDS011;7019;50.766;4.474;2023-06-26T00:32:49;3.20;;;2.43;;
13897;SDS011;7019;50.766;4.474;2023-06-26T00:35:16;7.07;;;3.33;;
13897;SDS011;7019;50.766;4.474;2023-06-26T00:37:43;5.77;;;3.23;;
13897;SDS011;7019;50.766;4.474;2023-06-26T00:40:10;8.07;;;3.57;;
13897;SDS011;7019;50.766;4.474;2023-06-26T00:42:38;5.23;;;3.43;;
13897;SDS011;7019;50.766;4.474;2023-06-26T00:45:06;3.77;;;3.27;;
13897;SDS011;7019;50.766;4.474;2023-06-26T00:47:34;8.03;;;3.20;;
13897;SDS011;7019;50.766;4.474;2023-06-26T00:50:02;4.80;;;3.10;;
13897;SDS011;7019;50.766;4.474;2023-06-26T00:52:31;5.37;;;3.47;;
13897;SDS011;7019;50.766;4.474;2023-06-26T00:54:58;4.60;;;3.13;;
13897;SDS011;7019;50.766;4.474;2023-06-26T00:57:26;5.57;;;3.43;;
13897;SDS011;7019;50.766;4.474;2023-06-26T00:59:53;5.40;;;3.43;;
13897;SDS011;7019;50.766;4.474;2023-06-26T01:02:20;5.63;;;3.00;;
13897;SDS011;7019;50.766;4.474;2023-06-26T01:04:49;5.23;;;3.27;;
13897;SDS011;7019;50.766;4.474;2023-06-26T01:07:17;5.40;;;3.07;;
13897;SDS011;7019;50.766;4.474;2023-06-26T01:09:46;6.33;;;3.33;;
13897;SDS011;7019;50.766;4.474;2023-06-26T01:12:13;4.67;;;2.80;;
13897;SDS011;7019;50.766;4.474;2023-06-26T01:14:41;4.47;;;2.90;;
13897;SDS011;7019;50.766;4.474;2023-06-26T01:17:09;3.23;;;2.73;;
13897;SDS011;7019;50.766;4.474;2023-06-26T01:19:40;4.67;;;3.20;;
13897;SDS011;7019;50.766;4.474;2023-06-26T01:22:13;3.90;;;2.53;;
13897;SDS011;7019;50.766;4.474;2023-06-26T01:24:52;3.33;;;2.37;;
13897;SDS011;7019;50.766;4.474;2023-06-26T01:27:29;4.43;;;2.30;;
13897;SDS011;7019;50.766;4.474;2023-06-26T01:29:59;4.43;;;2.80;;
13897;SDS011;7019;50.766;4.474;2023-06-26T01:32:29;6.00;;;3.00;;
13897;SDS011;7019;50.766;4.474;2023-06-26T01:34:56;3.87;;;2.47;;
13897;SDS011;7019;50.766;4.474;2023-06-26T01:37:24;5.13;;;2.80;;
13897;SDS011;7019;50.766;4.474;2023-06-26T01:39:50;4.33;;;2.70;;
13897;SDS011;7019;50.766;4.474;2023-06-26T01:42:17;3.07;;;2.67;;
13897;SDS011;7019;50.766;4.474;2023-06-26T01:44:46;3.73;;;2.80;;
13897;SDS011;7019;50.766;4.474;2023-06-26T01:47:14;3.73;;;3.00;;
13897;SDS011;7019;50.766;4.474;2023-06-26T01:49:47;4.37;;;2.87;;
13897;SDS011;7019;50.766;4.474;2023-06-26T01:52:19;4.07;;;2.83;;
13897;SDS011;7019;50.766;4.474;2023-06-26T01:54:51;7.57;;;2.77;;
13897;SDS011;7019;50.766;4.474;2023-06-26T01:57:23;4.70;;;3.07;;
13897;SDS011;7019;50.766;4.474;2023-06-26T01:59:55;3.90;;;2.80;;
13897;SDS011;7019;50.766;4.474;2023-06-26T02:02:23;7.37;;;3.40;;
13897;SDS011;7019;50.766;4.474;2023-06-26T02:04:51;5.33;;;3.10;;
13897;SDS011;7019;50.766;4.474;2023-06-26T02:07:18;3.47;;;2.77;;
13897;SDS011;7019;50.766;4.474;2023-06-26T02:09:45;4.30;;;2.80;;
13897;SDS011;7019;50.766;4.474;2023-06-26T02:12:12;6.20;;;3.37;;
13897;SDS011;7019;50.766;4.474;2023-06-26T02:14:39;4.03;;;2.67;;
13897;SDS011;7019;50.766;4.474;2023-06-26T02:17:08;6.57;;;2.97;;
13897;SDS011;7019;50.766;4.474;2023-06-26T02:19:35;4.33;;;2.37;;
13897;SDS011;7019;50.766;4.474;2023-06-26T02:22:10;5.93;;;3.20;;
13897;SDS011;7019;50.766;4.474;2023-06-26T02:24:37;7.30;;;2.80;;
13897;SDS011;7019;50.766;4.474;2023-06-26T02:27:04;6.20;;;2.73;;
13897;SDS011;7019;50.766;4.474;2023-06-26T02:29:31;5.43;;;3.27;;
13897;SDS011;7019;50.766;4.474;2023-06-26T02:31:58;6.17;;;3.03;;
13897;SDS011;7019;50.766;4.474;2023-06-26T02:34:27;5.20;;;2.80;;
13897;SDS011;7019;50.766;4.474;2023-06-26T02:36:55;7.10;;;3.10;;
13897;SDS011;7019;50.766;4.474;2023-06-26T02:39:23;6.33;;;2.87;;
13897;SDS011;7019;50.766;4.474;2023-06-26T02:41:50;5.17;;;3.00;;
13897;SDS011;7019;50.766;4.474;2023-06-26T02:44:17;5.47;;;2.97;;
13897;SDS011;7019;50.766;4.474;2023-06-26T02:46:45;5.93;;;3.40;;
13897;SDS011;7019;50.766;4.474;2023-06-26T02:49:12;6.53;;;3.40;;
13897;SDS011;7019;50.766;4.474;2023-06-26T02:51:40;7.83;;;3.70;;
13897;SDS011;7019;50.766;4.474;2023-06-26T02:54:07;3.57;;;2.40;;
13897;SDS011;7019;50.766;4.474;2023-06-26T02:56:34;6.37;;;3.40;;
13897;SDS011;7019;50.766;4.474;2023-06-26T02:59:01;7.80;;;3.00;;
13897;SDS011;7019;50.766;4.474;2023-06-26T03:01:28;7.67;;;4.17;;
13897;SDS011;7019;50.766;4.474;2023-06-26T03:03:55;6.17;;;3.47;;
13897;SDS011;7019;50.766;4.474;2023-06-26T03:06:22;6.83;;;3.20;;
13897;SDS011;7019;50.766;4.474;2023-06-26T03:08:50;8.27;;;3.33;;
13897;SDS011;7019;50.766;4.474;2023-06-26T03:11:17;7.73;;;3.40;;
13897;SDS011;7019;50.766;4.474;2023-06-26T03:13:45;6.97;;;3.33;;
13897;SDS011;7019;50.766;4.474;2023-06-26T03:16:12;11.23;;;3.67;;
13897;SDS011;7019;50.766;4.474;2023-06-26T03:18:39;6.67;;;4.20;;
13897;SDS011;7019;50.766;4.474;2023-06-26T03:21:06;6.73;;;3.90;;
13897;SDS011;7019;50.766;4.474;2023-06-26T03:23:34;9.63;;;4.17;;
13897;SDS011;7019;50.766;4.474;2023-06-26T03:26:03;7.50;;;3.80;;
13897;SDS011;7019;50.766;4.474;2023-06-26T03:28:30;6.73;;;3.73;;
13897;SDS011;7019;50.766;4.474;2023-06-26T03:30:57;7.93;;;3.73;;
13897;SDS011;7019;50.766;4.474;2023-06-26T03:33:24;6.03;;;3.57;;
13897;SDS011;7019;50.766;4.474;2023-06-26T03:35:51;8.27;;;4.73;;
13897;SDS011;7019;50.766;4.474;2023-06-26T03:38:18;8.30;;;3.47;;
13897;SDS011;7019;50.766;4.474;2023-06-26T03:40:46;8.90;;;4.20;;
13897;SDS011;7019;50.766;4.474;2023-06-26T03:43:14;5.97;;;3.40;;
13897;SDS011;7019;50.766;4.474;2023-06-26T03:45:41;11.40;;;4.67;;
13897;SDS011;7019;50.766;4.474;2023-06-26T03:48:08;7.63;;;3.87;;
13897;SDS011;7019;50.766;4.474;2023-06-26T03:50:35;8.90;;;3.67;;
13897;SDS011;7019;50.766;4.474;2023-06-26T03:53:02;10.27;;;3.60;;
13897;SDS011;7019;50.766;4.474;2023-06-26T03:55:29;8.83;;;3.93;;
13897;SDS011;7019;50.766;4.474;2023-06-26T03:57:56;6.93;;;3.27;;
13897;SDS011;7019;50.766;4.474;2023-06-26T04:00:25;9.20;;;3.77;;
13897;SDS011;7019;50.766;4.474;2023-06-26T04:02:52;9.17;;;3.53;;
13897;SDS011;7019;50.766;4.474;2023-06-26T04:05:19;9.00;;;3.63;;
13897;SDS011;7019;50.766;4.474;2023-06-26T04:07:49;10.43;;;3.80;;
13897;SDS011;7019;50.766;4.474;2023-06-26T04:10:16;8.60;;;3.20;;
13897;SDS011;7019;50.766;4.474;2023-06-26T04:12:43;7.33;;;3.70;;
13897;SDS011;7019;50.766;4.474;2023-06-26T04:15:10;6.30;;;3.43;;
13897;SDS011;7019;50.766;4.474;2023-06-26T04:17:39;9.97;;;3.70;;
13897;SDS011;7019;50.766;4.474;2023-06-26T04:20:06;6.87;;;3.40;;
13897;SDS011;7019;50.766;4.474;2023-06-26T04:22:34;11.80;;;3.60;;
13897;SDS011;7019;50.766;4.474;2023-06-26T04:25:02;6.93;;;3.03;;
13897;SDS011;7019;50.766;4.474;2023-06-26T04:27:30;7.90;;;3.43;;
13897;SDS011;7019;50.766;4.474;2023-06-26T04:29:57;11.23;;;3.53;;
13897;SDS011;7019;50.766;4.474;2023-06-26T04:32:24;9.70;;;3.17;;
13897;SDS011;7019;50.766;4.474;2023-06-26T04:34:53;10.73;;;3.57;;
13897;SDS011;7019;50.766;4.474;2023-06-26T04:37:20;7.50;;;3.27;;
13897;SDS011;7019;50.766;4.474;2023-06-26T04:39:47;8.10;;;2.90;;
13897;SDS011;7019;50.766;4.474;2023-06-26T04:42:14;12.37;;;3.60;;
13897;SDS011;7019;50.766;4.474;2023-06-26T04:44:41;9.30;;;3.40;;
13897;SDS011;7019;50.766;4.474;2023-06-26T04:47:08;6.60;;;2.47;;
13897;SDS011;7019;50.766;4.474;2023-06-26T04:49:36;11.83;;;3.47;;
13897;SDS011;7019;50.766;4.474;2023-06-26T04:52:04;8.60;;;3.77;;
13897;SDS011;7019;50.766;4.474;2023-06-26T04:54:31;11.27;;;3.70;;
13897;SDS011;7019;50.766;4.474;2023-06-26T04:56:59;8.17;;;3.53;;
13897;SDS011;7019;50.766;4.474;2023-06-26T04:59:26;9.17;;;2.73;;
13897;SDS011;7019;50.766;4.474;2023-06-26T05:01:53;5.20;;;3.10;;
13897;SDS011;7019;50.766;4.474;2023-06-26T05:04:20;10.67;;;3.73;;
13897;SDS011;7019;50.766;4.474;2023-06-26T05:06:48;8.87;;;2.63;;
13897;SDS011;7019;50.766;4.474;2023-06-26T05:09:16;10.93;;;3.27;;
13897;SDS011;7019;50.766;4.474;2023-06-26T05:11:43;8.00;;;2.70;;
13897;SDS011;7019;50.766;4.474;2023-06-26T05:14:10;9.07;;;3.67;;
13897;SDS011;7019;50.766;4.474;2023-06-26T05:16:38;8.23;;;3.00;;
13897;SDS011;7019;50.766;4.474;2023-06-26T05:19:05;10.93;;;3.37;;
13897;SDS011;7019;50.766;4.474;2023-06-26T05:21:32;8.77;;;3.23;;
13897;SDS011;7019;50.766;4.474;2023-06-26T05:24:00;7.30;;;2.57;;
13897;SDS011;7019;50.766;4.474;2023-06-26T05:26:31;7.40;;;2.67;;
13897;SDS011;7019;50.766;4.474;2023-06-26T05:28:59;7.93;;;2.30;;
13897;SDS011;7019;50.766;4.474;2023-06-26T05:31:27;7.57;;;2.53;;
13897;SDS011;7019;50.766;4.474;2023-06-26T05:33:55;9.17;;;2.67;;
13897;SDS011;7019;50.766;4.474;2023-06-26T05:36:24;8.23;;;2.30;;
13897;SDS011;7019;50.766;4.474;2023-06-26T05:38:53;4.87;;;2.30;;
13897;SDS011;7019;50.766;4.474;2023-06-26T05:41:22;7.87;;;2.23;;
13897;SDS011;7019;50.766;4.474;2023-06-26T05:43:51;9.57;;;2.70;;
13897;SDS011;7019;50.766;4.474;2023-06-26T05:46:19;7.80;;;2.50;;
13897;SDS011;7019;50.766;4.474;2023-06-26T05:48:46;7.13;;;2.17;;
13897;SDS011;7019;50.766;4.474;2023-06-26T05:51:13;8.70;;;2.70;;
13897;SDS011;7019;50.766;4.474;2023-06-26T05:53:41;5.17;;;2.07;;
13897;SDS011;7019;50.766;4.474;2023-06-26T05:56:09;7.50;;;2.45;;
13897;SDS011;7019;50.766;4.474;2023-06-26T05:58:37;9.27;;;2.13;;
13897;SDS011;7019;50.766;4.474;2023-06-26T06:01:05;4.70;;;1.65;;
13897;SDS011;7019;50.766;4.474;2023-06-26T06:03:32;5.13;;;1.90;;
13897;SDS011;7019;50.766;4.474;2023-06-26T06:05:59;6.43;;;1.98;;
13897;SDS011;7019;50.766;4.474;2023-06-26T06:08:26;5.28;;;2.10;;
13897;SDS011;7019;50.766;4.474;2023-06-26T06:10:53;6.65;;;2.13;;
13897;SDS011;7019;50.766;4.474;2023-06-26T06:13:20;9.80;;;2.13;;
13897;SDS011;7019;50.766;4.474;2023-06-26T06:15:47;3.70;;;1.73;;
13897;SDS011;7019;50.766;4.474;2023-06-26T06:18:16;5.88;;;1.80;;
13897;SDS011;7019;50.766;4.474;2023-06-26T06:20:43;4.53;;;2.03;;
13897;SDS011;7019;50.766;4.474;2023-06-26T06:23:10;4.32;;;1.60;;
13897;SDS011;7019;50.766;4.474;2023-06-26T06:25:37;5.18;;;1.60;;
13897;SDS011;7019;50.766;4.474;2023-06-26T06:28:04;4.95;;;1.85;;
13897;SDS011;7019;50.766;4.474;2023-06-26T06:30:32;5.65;;;1.80;;
13897;SDS011;7019;50.766;4.474;2023-06-26T06:32:59;6.28;;;1.67;;
13897;SDS011;7019;50.766;4.474;2023-06-26T06:35:27;4.88;;;2.13;;
13897;SDS011;7019;50.766;4.474;2023-06-26T06:37:54;3.15;;;1.15;;
13897;SDS011;7019;50.766;4.474;2023-06-26T06:40:21;5.13;;;1.75;;
13897;SDS011;7019;50.766;4.474;2023-06-26T06:42:50;4.35;;;1.60;;
13897;SDS011;7019;50.766;4.474;2023-06-26T06:45:17;8.57;;;1.88;;
13897;SDS011;7019;50.766;4.474;2023-06-26T06:47:44;5.80;;;1.30;;
13897;SDS011;7019;50.766;4.474;2023-06-26T06:50:11;4.45;;;1.73;;
13897;SDS011;7019;50.766;4.474;2023-06-26T06:52:42;5.20;;;1.60;;
13897;SDS011;7019;50.766;4.474;2023-06-26T06:55:09;6.07;;;1.33;;
13897;SDS011;7019;50.766;4.474;2023-06-26T06:57:37;5.15;;;1.27;;
13897;SDS011;7019;50.766;4.474;2023-06-26T07:00:05;4.57;;;1.52;;
13897;SDS011;7019;50.766;4.474;2023-06-26T07:02:35;2.35;;;1.10;;
13897;SDS011;7019;50.766;4.474;2023-06-26T07:05:02;3.72;;;1.40;;
13897;SDS011;7019;50.766;4.474;2023-06-26T07:07:30;5.57;;;1.63;;
13897;SDS011;7019;50.766;4.474;2023-06-26T07:10:00;3.17;;;1.20;;
13897;SDS011;7019;50.766;4.474;2023-06-26T07:12:29;6.07;;;1.35;;
13897;SDS011;7019;50.766;4.474;2023-06-26T07:14:56;2.58;;;1.00;;
13897;SDS011;7019;50.766;4.474;2023-06-26T07:17:24;4.78;;;1.20;;
13897;SDS011;7019;50.766;4.474;2023-06-26T07:19:51;3.72;;;1.20;;
13897;SDS011;7019;50.766;4.474;2023-06-26T07:22:18;3.72;;;1.45;;
13897;SDS011;7019;50.766;4.474;2023-06-26T07:24:46;4.25;;;1.15;;
13897;SDS011;7019;50.766;4.474;2023-06-26T07:27:15;3.42;;;1.50;;
13897;SDS011;7019;50.766;4.474;2023-06-26T07:29:43;3.50;;;0.90;;
13897;SDS011;7019;50.766;4.474;2023-06-26T07:32:10;7.30;;;1.42;;
13897;SDS011;7019;50.766;4.474;2023-06-26T07:34:37;5.25;;;1.92;;
13897;SDS011;7019;50.766;4.474;2023-06-26T07:37:04;4.47;;;1.15;;
13897;SDS011;7019;50.766;4.474;2023-06-26T07:39:32;4.20;;;1.02;;
13897;SDS011;7019;50.766;4.474;2023-06-26T07:41:59;5.20;;;1.33;;
13897;SDS011;7019;50.766;4.474;2023-06-26T07:44:27;2.58;;;1.05;;
13897;SDS011;7019;50.766;4.474;2023-06-26T07:46:54;4.13;;;1.27;;
13897;SDS011;7019;50.766;4.474;2023-06-26T07:49:21;3.40;;;1.25;;
13897;SDS011;7019;50.766;4.474;2023-06-26T07:51:48;2.17;;;0.93;;
13897;SDS011;7019;50.766;4.474;2023-06-26T07:54:15;3.22;;;1.10;;
13897;SDS011;7019;50.766;4.474;2023-06-26T07:56:52;3.95;;;1.50;;
13897;SDS011;7019;50.766;4.474;2023-06-26T07:59:20;4.65;;;0.90;;
13897;SDS011;7019;50.766;4.474;2023-06-26T08:01:50;3.40;;;1.30;;
13897;SDS011;7019;50.766;4.474;2023-06-26T08:04:18;6.70;;;1.42;;
13897;SDS011;7019;50.766;4.474;2023-06-26T08:06:47;1.67;;;0.93;;
13897;SDS011;7019;50.766;4.474;2023-06-26T08:09:14;2.35;;;1.00;;
13897;SDS011;7019;50.766;4.474;2023-06-26T08:11:42;6.13;;;1.38;;
13897;SDS011;7019;50.766;4.474;2023-06-26T08:14:09;3.70;;;1.60;;
13897;SDS011;7019;50.766;4.474;2023-06-26T08:16:37;3.03;;;1.00;;
13897;SDS011;7019;50.766;4.474;2023-06-26T08:19:05;5.45;;;1.30;;
13897;SDS011;7019;50.766;4.474;2023-06-26T08:21:32;4.40;;;1.17;;
13897;SDS011;7019;50.766;4.474;2023-06-26T08:23:59;2.97;;;1.20;;
13897;SDS011;7019;50.766;4.474;2023-06-26T08:26:26;3.50;;;1.17;;
13897;SDS011;7019;50.766;4.474;2023-06-26T08:28:53;2.45;;;1.17;;
13897;SDS011;7019;50.766;4.474;2023-06-26T08:31:21;5.03;;;1.77;;
13897;SDS011;7019;50.766;4.474;2023-06-26T08:33:48;3.25;;;1.05;;
13897;SDS011;7019;50.766;4.474;2023-06-26T08:36:17;3.65;;;1.30;;
13897;SDS011;7019;50.766;4.474;2023-06-26T08:38:44;1.83;;;1.20;;
13897;SDS011;7019;50.766;4.474;2023-06-26T08:41:11;2.75;;;1.08;;
13897;SDS011;7019;50.766;4.474;2023-06-26T08:43:38;2.08;;;0.88;;
13897;SDS011;7019;50.766;4.474;2023-06-26T08:46:05;3.50;;;1.42;;
13897;SDS011;7019;50.766;4.474;2023-06-26T08:48:32;4.53;;;1.20;;
13897;SDS011;7019;50.766;4.474;2023-06-26T08:51:02;1.73;;;0.88;;
13897;SDS011;7019;50.766;4.474;2023-06-26T08:53:39;4.88;;;1.17;;
13897;SDS011;7019;50.766;4.474;2023-06-26T08:56:11;6.00;;;1.48;;
13897;SDS011;7019;50.766;4.474;2023-06-26T08:58:41;4.22;;;1.40;;
13897;SDS011;7019;50.766;4.474;2023-06-26T09:01:08;5.15;;;1.27;;
13897;SDS011;7019;50.766;4.474;2023-06-26T09:03:36;2.28;;;0.90;;
13897;SDS011;7019;50.766;4.474;2023-06-26T09:06:04;2.88;;;1.08;;
13897;SDS011;7019;50.766;4.474;2023-06-26T09:08:31;5.30;;;1.33;;
13897;SDS011;7019;50.766;4.474;2023-06-26T09:10:59;4.47;;;1.00;;
13897;SDS011;7019;50.766;4.474;2023-06-26T09:13:28;2.90;;;1.13;;
13897;SDS011;7019;50.766;4.474;2023-06-26T09:15:55;2.75;;;1.15;;
13897;SDS011;7019;50.766;4.474;2023-06-26T09:18:23;2.85;;;1.10;;
13897;SDS011;7019;50.766;4.474;2023-06-26T09:20:50;4.32;;;1.23;;
13897;SDS011;7019;50.766;4.474;2023-06-26T09:23:17;2.50;;;0.93;;
13897;SDS011;7019;50.766;4.474;2023-06-26T09:25:46;2.85;;;1.20;;
13897;SDS011;7019;50.766;4.474;2023-06-26T09:28:15;4.10;;;0.85;;
13897;SDS011;7019;50.766;4.474;2023-06-26T09:30:42;3.38;;;1.00;;
13897;SDS011;7019;50.766;4.474;2023-06-26T09:33:13;1.45;;;0.65;;
13897;SDS011;7019;50.766;4.474;2023-06-26T09:35:41;1.80;;;0.82;;
13897;SDS011;7019;50.766;4.474;2023-06-26T09:38:08;1.95;;;0.88;;
13897;SDS011;7019;50.766;4.474;2023-06-26T09:40:35;3.25;;;1.17;;
13897;SDS011;7019;50.766;4.474;2023-06-26T09:43:03;2.42;;;0.80;;
13897;SDS011;7019;50.766;4.474;2023-06-26T09:45:32;2.42;;;0.85;;
13897;SDS011;7019;50.766;4.474;2023-06-26T09:48:02;2.28;;;0.90;;
13897;SDS011;7019;50.766;4.474;2023-06-26T09:50:30;1.67;;;0.98;;
13897;SDS011;7019;50.766;4.474;2023-06-26T09:53:04;1.02;;;0.80;;
13897;SDS011;7019;50.766;4.474;2023-06-26T09:55:34;4.72;;;0.90;;
13897;SDS011;7019;50.766;4.474;2023-06-26T09:58:04;1.48;;;0.77;;
13897;SDS011;7019;50.766;4.474;2023-06-26T10:00:34;1.65;;;0.85;;
13897;SDS011;7019;50.766;4.474;2023-06-26T10:03:01;3.85;;;1.63;;
13897;SDS011;7019;50.766;4.474;2023-06-26T10:05:29;2.50;;;0.95;;
13897;SDS011;7019;50.766;4.474;2023-06-26T10:07:56;5.93;;;1.60;;
13897;SDS011;7019;50.766;4.474;2023-06-26T10:10:26;2.08;;;0.73;;
13897;SDS011;7019;50.766;4.474;2023-06-26T10:12:54;3.13;;;1.10;;
13897;SDS011;7019;50.766;4.474;2023-06-26T10:15:25;3.13;;;1.15;;
13897;SDS011;7019;50.766;4.474;2023-06-26T10:17:57;3.28;;;1.25;;
13897;SDS011;7019;50.766;4.474;2023-06-26T10:20:25;4.55;;;1.83;;
13897;SDS011;7019;50.766;4.474;2023-06-26T10:22:53;3.65;;;1.10;;
13897;SDS011;7019;50.766;4.474;2023-06-26T10:25:24;3.03;;;1.00;;
13897;SDS011;7019;50.766;4.474;2023-06-26T10:27:52;2.10;;;1.00;;
13897;SDS011;7019;50.766;4.474;2023-06-26T10:30:23;5.75;;;1.02;;
13897;SDS011;7019;50.766;4.474;2023-06-26T10:32:54;3.95;;;1.10;;
13897;SDS011;7019;50.766;4.474;2023-06-26T10:35:23;6.47;;;0.98;;
13897;SDS011;7019;50.766;4.474;2023-06-26T10:37:51;3.65;;;1.00;;
13897;SDS011;7019;50.766;4.474;2023-06-26T10:40:21;1.73;;;0.73;;
13897;SDS011;7019;50.766;4.474;2023-06-26T10:42:51;4.65;;;1.13;;
13897;SDS011;7019;50.766;4.474;2023-06-26T10:45:32;5.30;;;1.17;;
13897;SDS011;7019;50.766;4.474;2023-06-26T10:48:00;2.15;;;0.88;;
13897;SDS011;7019;50.766;4.474;2023-06-26T10:50:29;3.65;;;1.10;;
13897;SDS011;7019;50.766;4.474;2023-06-26T10:53:14;3.75;;;1.10;;
13897;SDS011;7019;50.766;4.474;2023-06-26T10:55:47;2.65;;;0.80;;
13897;SDS011;7019;50.766;4.474;2023-06-26T10:58:40;1.40;;;0.88;;
13897;SDS011;7019;50.766;4.474;2023-06-26T11:01:22;6.40;;;1.15;;
13897;SDS011;7019;50.766;4.474;2023-06-26T11:04:00;4.43;;;1.20;;
13897;SDS011;7019;50.766;4.474;2023-06-26T11:06:31;2.17;;;0.80;;
13897;SDS011;7019;50.766;4.474;2023-06-26T11:09:00;1.27;;;0.73;;
13897;SDS011;7019;50.766;4.474;2023-06-26T11:14:25;1.60;;;0.80;;
13897;SDS011;7019;50.766;4.474;2023-06-26T11:16:55;2.47;;;1.08;;
13897;SDS011;7019;50.766;4.474;2023-06-26T11:19:24;4.28;;;0.95;;
13897;SDS011;7019;50.766;4.474;2023-06-26T11:21:59;2.78;;;0.90;;
13897;SDS011;7019;50.766;4.474;2023-06-26T11:24:29;4.00;;;1.13;;
13897;SDS011;7019;50.766;4.474;2023-06-26T11:26:59;3.38;;;1.00;;
13897;SDS011;7019;50.766;4.474;2023-06-26T11:29:28;2.38;;;1.17;;
13897;SDS011;7019;50.766;4.474;2023-06-26T11:32:00;2.47;;;1.00;;
13897;SDS011;7019;50.766;4.474;2023-06-26T11:34:30;4.40;;;0.95;;
13897;SDS011;7019;50.766;4.474;2023-06-26T11:37:00;5.63;;;0.90;;
13897;SDS011;7019;50.766;4.474;2023-06-26T11:39:27;2.90;;;1.10;;
13897;SDS011;7019;50.766;4.474;2023-06-26T11:41:55;2.63;;;1.20;;
13897;SDS011;7019;50.766;4.474;2023-06-26T11:44:22;2.40;;;0.90;;
13897;SDS011;7019;50.766;4.474;2023-06-26T11:46:52;2.38;;;1.15;;
13897;SDS011;7019;50.766;4.474;2023-06-26T11:49:21;2.80;;;1.05;;
13897;SDS011;7019;50.766;4.474;2023-06-26T11:51:50;1.73;;;0.90;;
13897;SDS011;7019;50.766;4.474;2023-06-26T11:57:04;2.33;;;1.00;;
13897;SDS011;7019;50.766;4.474;2023-06-26T11:59:33;3.40;;;1.42;;
13897;SDS011;7019;50.766;4.474;2023-06-26T12:02:04;3.33;;;1.00;;
13897;SDS011;7019;50.766;4.474;2023-06-26T12:04:33;5.03;;;1.25;;
13897;SDS011;7019;50.766;4.474;2023-06-26T12:07:01;3.55;;;0.80;;
13897;SDS011;7019;50.766;4.474;2023-06-26T12:09:30;2.28;;;0.70;;
13897;SDS011;7019;50.766;4.474;2023-06-26T12:12:00;1.80;;;0.70;;
13897;SDS011;7019;50.766;4.474;2023-06-26T12:14:28;1.48;;;0.90;;
13897;SDS011;7019;50.766;4.474;2023-06-26T12:17:03;5.97;;;1.02;;
13897;SDS011;7019;50.766;4.474;2023-06-26T12:19:33;5.18;;;0.77;;
13897;SDS011;7019;50.766;4.474;2023-06-26T12:22:06;2.95;;;1.48;;
13897;SDS011;7019;50.766;4.474;2023-06-26T12:24:34;2.40;;;0.70;;
13897;SDS011;7019;50.766;4.474;2023-06-26T12:27:07;1.65;;;0.88;;
13897;SDS011;7019;50.766;4.474;2023-06-26T12:29:35;2.17;;;1.00;;
13897;SDS011;7019;50.766;4.474;2023-06-26T12:32:02;4.30;;;1.02;;
13897;SDS011;7019;50.766;4.474;2023-06-26T12:34:31;2.70;;;0.82;;
13897;SDS011;7019;50.766;4.474;2023-06-26T12:36:59;2.08;;;0.80;;
13897;SDS011;7019;50.766;4.474;2023-06-26T12:39:28;2.55;;;0.50;;
13897;SDS011;7019;50.766;4.474;2023-06-26T12:41:57;1.77;;;0.90;;
13897;SDS011;7019;50.766;4.474;2023-06-26T12:44:28;2.78;;;1.02;;
13897;SDS011;7019;50.766;4.474;2023-06-26T12:46:58;2.97;;;0.77;;
13897;SDS011;7019;50.766;4.474;2023-06-26T12:49:29;1.15;;;0.80;;
13897;SDS011;7019;50.766;4.474;2023-06-26T12:51:57;3.65;;;1.10;;
13897;SDS011;7019;50.766;4.474;2023-06-26T12:54:26;1.90;;;0.85;;
13897;SDS011;7019;50.766;4.474;2023-06-26T12:56:53;2.55;;;1.13;;
13897;SDS011;7019;50.766;4.474;2023-06-26T12:59:20;2.22;;;0.82;;
13897;SDS011;7019;50.766;4.474;2023-06-26T13:01:49;2.13;;;1.10;;
13897;SDS011;7019;50.766;4.474;2023-06-26T13:04:16;2.80;;;0.90;;
13897;SDS011;7019;50.766;4.474;2023-06-26T13:06:43;3.63;;;1.33;;
13897;SDS011;7019;50.766;4.474;2023-06-26T13:09:10;3.08;;;0.95;;
13897;SDS011;7019;50.766;4.474;2023-06-26T13:11:37;4.82;;;1.10;;
13897;SDS011;7019;50.766;4.474;2023-06-26T13:14:05;1.42;;;1.10;;
13897;SDS011;7019;50.766;4.474;2023-06-26T13:16:32;1.77;;;1.35;;
13897;SDS011;7019;50.766;4.474;2023-06-26T13:19:01;1.52;;;1.25;;
13897;SDS011;7019;50.766;4.474;2023-06-26T13:21:28;3.70;;;1.20;;
13897;SDS011;7019;50.766;4.474;2023-06-26T13:23:55;2.05;;;0.85;;
13897;SDS011;7019;50.766;4.474;2023-06-26T13:26:24;3.40;;;1.00;;
13897;SDS011;7019;50.766;4.474;2023-06-26T13:28:53;2.65;;;1.08;;
13897;SDS011;7019;50.766;4.474;2023-06-26T13:31:21;4.10;;;1.05;;
13897;SDS011;7019;50.766;4.474;2023-06-26T13:33:48;1.67;;;0.80;;
13897;SDS011;7019;50.766;4.474;2023-06-26T13:36:17;2.42;;;1.05;;
13897;SDS011;7019;50.766;4.474;2023-06-26T13:38:46;2.13;;;1.02;;
13897;SDS011;7019;50.766;4.474;2023-06-26T13:41:20;2.72;;;0.95;;
13897;SDS011;7019;50.766;4.474;2023-06-26T13:43:47;4.45;;;0.93;;
13897;SDS011;7019;50.766;4.474;2023-06-26T13:46:15;2.90;;;1.00;;
13897;SDS011;7019;50.766;4.474;2023-06-26T13:48:43;2.30;;;1.10;;
13897;SDS011;7019;50.766;4.474;2023-06-26T13:51:10;2.22;;;1.10;;
13897;SDS011;7019;50.766;4.474;2023-06-26T13:53:39;2.88;;;0.90;;
13897;SDS011;7019;50.766;4.474;2023-06-26T13:56:06;4.32;;;1.15;;
13897;SDS011;7019;50.766;4.474;2023-06-26T13:58:34;2.95;;;1.10;;
13897;SDS011;7019;50.766;4.474;2023-06-26T14:01:04;3.05;;;1.15;;
13897;SDS011;7019;50.766;4.474;2023-06-26T14:03:31;4.30;;;1.50;;
13897;SDS011;7019;50.766;4.474;2023-06-26T14:05:59;2.45;;;1.15;;
13897;SDS011;7019;50.766;4.474;2023-06-26T14:08:26;2.25;;;1.15;;
13897;SDS011;7019;50.766;4.474;2023-06-26T14:10:54;2.97;;;1.15;;
13897;SDS011;7019;50.766;4.474;2023-06-26T14:13:21;2.70;;;0.85;;
13897;SDS011;7019;50.766;4.474;2023-06-26T14:15:48;1.95;;;0.90;;
13897;SDS011;7019;50.766;4.474;2023-06-26T14:18:17;1.05;;;0.80;;
13897;SDS011;7019;50.766;4.474;2023-06-26T14:20:46;3.47;;;0.90;;
13897;SDS011;7019;50.766;4.474;2023-06-26T14:23:13;2.35;;;0.95;;
13897;SDS011;7019;50.766;4.474;2023-06-26T14:25:40;3.22;;;1.10;;
13897;SDS011;7019;50.766;4.474;2023-06-26T14:28:08;2.25;;;1.13;;
13897;SDS011;7019;50.766;4.474;2023-06-26T14:30:35;5.13;;;1.15;;
13897;SDS011;7019;50.766;4.474;2023-06-26T14:33:02;5.90;;;0.95;;
13897;SDS011;7019;50.766;4.474;2023-06-26T14:35:29;3.40;;;1.02;;
13897;SDS011;7019;50.766;4.474;2023-06-26T14:37:56;2.40;;;0.93;;
13897;SDS011;7019;50.766;4.474;2023-06-26T14:40:23;2.67;;;0.98;;
13897;SDS011;7019;50.766;4.474;2023-06-26T14:42:50;1.60;;;0.90;;
13897;SDS011;7019;50.766;4.474;2023-06-26T14:45:19;2.97;;;1.00;;
13897;SDS011;7019;50.766;4.474;2023-06-26T14:47:46;2.03;;;0.75;;
13897;SDS011;7019;50.766;4.474;2023-06-26T14:50:13;2.20;;;0.85;;
13897;SDS011;7019;50.766;4.474;2023-06-26T14:52:40;4.57;;;0.98;;
13897;SDS011;7019;50.766;4.474;2023-06-26T14:55:08;2.25;;;0.80;;
13897;SDS011;7019;50.766;4.474;2023-06-26T14:57:35;1.52;;;1.00;;
13897;SDS011;7019;50.766;4.474;2023-06-26T15:00:02;2.92;;;1.10;;
13897;SDS011;7019;50.766;4.474;2023-06-26T15:02:33;2.47;;;1.20;;
13897;SDS011;7019;50.766;4.474;2023-06-26T15:05:00;2.67;;;0.80;;
13897;SDS011;7019;50.766;4.474;2023-06-26T15:07:27;2.25;;;0.90;;
13897;SDS011;7019;50.766;4.474;2023-06-26T15:09:55;2.28;;;0.90;;
13897;SDS011;7019;50.766;4.474;2023-06-26T15:12:22;1.65;;;0.80;;